Larslan, Montana
Current Conditions -  °F | °C
As of 11:53 AM on Sunday 21 Dec 2014 (Local Time) from KGGW Reporting Station
Unknown Precip Unknown Precip  
Wind Chill: 26°   Ceiling: 6000
Heat Index: 32°   Visibility: 10mi
Dew Point: 26°   Wind: 6mph
Humidity: 79%   Direction: 150°SSE
Pressure: 29.31"   Gusts: NA
Location:  48.58°N, 106.19°W
Report Text: KGGW 211853Z AUTO 15005KT 10SM UP BKN060 OVC070 00/M03 A2931 RMK AO2 UPB48 SLP952 P0000 T00001033
Loading
Personal Weather Stations






























Interactive Weather Map New forecast layout! Learn more

10-Day Weather Forecast

Advertisements
Track Severe Weather on mobile